createdAt,value
2023-05-20T00:01:54.406Z,49.70
2023-05-20T00:03:56.305Z,49.70
2023-05-20T00:05:58.046Z,49.70
2023-05-20T00:08:00.562Z,49.70
2023-05-20T00:10:02.300Z,49.80
2023-05-20T00:12:04.132Z,49.90
2023-05-20T00:14:06.271Z,49.90
2023-05-20T00:16:08.022Z,49.90
2023-05-20T00:18:09.816Z,49.90
2023-05-20T00:20:11.670Z,50.20
2023-05-20T00:22:13.357Z,50.10
2023-05-20T00:24:15.073Z,49.90
2023-05-20T00:26:16.836Z,50.00
2023-05-20T00:28:23.839Z,50.10
2023-05-20T00:30:25.621Z,50.10
2023-05-20T00:32:27.416Z,50.20
2023-05-20T00:34:29.155Z,50.30
2023-05-20T00:36:31.311Z,50.40
2023-05-20T00:38:33.623Z,50.40
2023-05-20T00:40:35.376Z,50.40
2023-05-20T00:42:37.892Z,50.40
2023-05-20T00:44:39.676Z,50.60
2023-05-20T00:46:41.458Z,50.60
2023-05-20T00:48:43.959Z,50.50
2023-05-20T00:50:46.514Z,50.60
2023-05-20T00:52:51.555Z,50.60
2023-05-20T00:54:53.235Z,50.70
2023-05-20T00:56:55.022Z,50.80
2023-05-20T00:58:57.456Z,50.80
2023-05-20T01:00:59.233Z,50.90
2023-05-20T01:03:01.169Z,50.80
2023-05-20T01:05:03.279Z,51.70
2023-05-20T01:07:05.867Z,51.00
2023-05-20T01:09:08.051Z,51.00
2023-05-20T01:11:14.276Z,51.10
2023-05-20T01:13:17.389Z,51.00
2023-05-20T01:15:19.373Z,51.00
2023-05-20T01:17:21.556Z,51.10
2023-05-20T01:19:35.987Z,51.10
2023-05-20T01:21:38.444Z,51.20
2023-05-20T01:23:41.262Z,51.20
2023-05-20T01:25:43.711Z,51.30
2023-05-20T01:27:45.608Z,51.40
2023-05-20T01:29:50.597Z,51.30
2023-05-20T01:31:53.659Z,51.50
2023-05-20T01:33:56.190Z,51.50
2023-05-20T01:35:58.885Z,51.50
2023-05-20T01:38:01.399Z,51.60
2023-05-20T01:40:03.985Z,51.50
2023-05-20T01:42:06.209Z,51.60
2023-05-20T01:44:08.009Z,51.70
2023-05-20T01:46:10.438Z,51.80
2023-05-20T01:48:12.341Z,51.90
2023-05-20T01:50:14.192Z,51.90
2023-05-20T01:52:15.919Z,52.00
2023-05-20T01:54:17.614Z,51.90
2023-05-20T01:56:19.434Z,52.30
2023-05-20T01:58:21.090Z,52.00
2023-05-20T02:00:22.828Z,52.00
2023-05-20T02:02:24.612Z,51.80
2023-05-20T02:04:26.477Z,52.00
2023-05-20T02:06:28.201Z,52.50
2023-05-20T02:08:30.345Z,51.90
2023-05-20T02:10:32.019Z,52.10
2023-05-20T02:12:33.739Z,52.30
2023-05-20T02:14:35.714Z,52.30
2023-05-20T02:16:37.453Z,52.20
2023-05-20T02:18:39.194Z,52.30
2023-05-20T02:20:41.228Z,52.60
2023-05-20T02:22:43.012Z,52.40
2023-05-20T02:24:45.981Z,53.30
2023-05-20T02:26:49.500Z,52.60
2023-05-20T02:28:51.584Z,52.50
2023-05-20T02:30:53.358Z,52.70
2023-05-20T02:32:55.133Z,52.60
2023-05-20T02:34:57.166Z,52.50
2023-05-20T02:36:58.933Z,52.50
2023-05-20T02:39:01.235Z,52.40
2023-05-20T02:41:04.421Z,52.50
2023-05-20T02:43:06.149Z,52.40
2023-05-20T02:45:09.794Z,52.60
2023-05-20T02:47:11.456Z,52.60
2023-05-20T02:49:13.139Z,52.50
2023-05-20T02:51:14.952Z,52.70
2023-05-20T02:53:16.643Z,52.70
2023-05-20T02:55:18.668Z,52.60
2023-05-20T02:57:20.420Z,52.40
2023-05-20T02:59:22.060Z,52.50
2023-05-20T03:01:23.848Z,52.80
2023-05-20T03:03:27.142Z,52.70
2023-05-20T03:05:28.895Z,52.50
2023-05-20T03:07:31.761Z,52.60
2023-05-20T03:09:33.545Z,52.70
2023-05-20T03:11:35.366Z,53.50
2023-05-20T03:13:37.935Z,53.10
2023-05-20T03:15:39.834Z,53.20
2023-05-20T03:17:41.605Z,53.20
2023-05-20T03:19:43.382Z,53.20
2023-05-20T03:21:46.592Z,54.10
2023-05-20T03:23:48.841Z,53.50
2023-05-20T03:25:50.745Z,53.30
2023-05-20T03:27:52.547Z,53.80
2023-05-20T03:29:57.136Z,54.20
2023-05-20T03:31:59.427Z,53.50
2023-05-20T03:34:01.220Z,53.40
2023-05-20T03:36:03.005Z,53.50
2023-05-20T03:38:04.770Z,53.20
2023-05-20T03:40:12.833Z,53.20
2023-05-20T03:42:16.035Z,53.20
2023-05-20T03:44:17.823Z,53.40
2023-05-20T03:46:19.553Z,53.80
2023-05-20T03:48:21.340Z,53.50
2023-05-20T03:50:23.528Z,53.60
2023-05-20T03:52:25.525Z,53.80
2023-05-20T03:54:28.117Z,54.10
2023-05-20T03:56:29.967Z,54.10
2023-05-20T03:58:31.831Z,53.70
2023-05-20T04:00:33.599Z,54.40
2023-05-20T04:02:35.613Z,54.30
2023-05-20T04:04:37.923Z,54.50
2023-05-20T04:06:40.471Z,54.80
2023-05-20T04:08:42.412Z,54.90
2023-05-20T04:10:44.257Z,54.80
2023-05-20T04:12:47.032Z,55.20
2023-05-20T04:14:50.051Z,54.50
2023-05-20T04:16:52.499Z,54.60
2023-05-20T04:18:54.377Z,54.20
2023-05-20T04:20:56.526Z,54.00
2023-05-20T04:22:58.192Z,53.90
2023-05-20T04:25:00.500Z,54.20
2023-05-20T04:27:02.360Z,54.00
2023-05-20T04:29:04.431Z,54.00
2023-05-20T04:31:08.242Z,54.10
2023-05-20T04:33:11.854Z,54.10
2023-05-20T04:35:14.506Z,54.20
2023-05-20T04:37:19.092Z,54.20
2023-05-20T04:39:20.814Z,54.20
2023-05-20T04:41:27.298Z,54.20
2023-05-20T04:43:31.986Z,54.50
2023-05-20T04:45:34.146Z,54.20
2023-05-20T04:47:39.198Z,54.20
2023-05-20T04:49:41.104Z,54.10
2023-05-20T04:51:43.759Z,56.30
2023-05-20T04:53:47.077Z,54.70
2023-05-20T04:55:49.727Z,54.60
2023-05-20T04:57:52.533Z,54.30
2023-05-20T04:59:58.553Z,55.40
2023-05-20T05:02:00.504Z,55.50
2023-05-20T05:04:02.719Z,55.40
2023-05-20T05:06:04.514Z,54.90
2023-05-20T05:08:06.836Z,56.20
2023-05-20T05:10:12.219Z,55.50
2023-05-20T05:12:14.086Z,55.60
2023-05-20T05:14:15.870Z,55.50
2023-05-20T05:16:17.759Z,55.40
2023-05-20T05:18:19.515Z,55.50
2023-05-20T05:20:21.305Z,55.10
2023-05-20T05:22:23.050Z,55.00
2023-05-20T05:24:26.241Z,55.90
2023-05-20T05:26:27.924Z,55.30
2023-05-20T05:28:29.693Z,55.20
2023-05-20T05:30:32.548Z,55.30
2023-05-20T05:32:34.443Z,55.70
2023-05-20T05:34:36.188Z,55.20
2023-05-20T05:36:39.505Z,55.20
2023-05-20T05:38:41.567Z,54.90
2023-05-20T05:40:43.317Z,54.80
2023-05-20T05:42:45.429Z,54.90
2023-05-20T05:44:47.868Z,54.60
2023-05-20T05:46:50.770Z,54.80
2023-05-20T05:48:52.547Z,54.80
2023-05-20T05:50:54.361Z,55.10
2023-05-20T05:52:56.730Z,55.00
2023-05-20T05:54:58.495Z,55.00
2023-05-20T05:57:00.825Z,55.00
2023-05-20T05:59:05.435Z,55.00
2023-05-20T06:01:07.233Z,55.30
2023-05-20T06:03:09.302Z,55.20
2023-05-20T06:05:12.511Z,55.10
2023-05-20T06:07:14.314Z,55.60
2023-05-20T06:09:16.352Z,55.30
2023-05-20T06:11:18.198Z,54.80
2023-05-20T06:13:20.200Z,54.90
2023-05-20T06:15:21.960Z,54.70
2023-05-20T06:17:23.737Z,55.00
2023-05-20T06:19:25.709Z,54.90
2023-05-20T06:21:27.585Z,55.10
2023-05-20T06:23:29.250Z,55.40
2023-05-20T06:25:34.239Z,55.00
2023-05-20T06:27:36.560Z,55.10
2023-05-20T06:29:39.126Z,55.30
2023-05-20T06:31:40.853Z,55.10
2023-05-20T06:33:42.571Z,55.20
2023-05-20T06:35:47.480Z,55.30
2023-05-20T06:37:49.313Z,55.20
2023-05-20T06:39:53.975Z,55.00
2023-05-20T06:41:55.905Z,55.30
2023-05-20T06:44:03.606Z,55.00
2023-05-20T06:46:28.396Z,55.00
2023-05-20T06:48:35.184Z,55.00
2023-05-20T06:50:37.252Z,54.80
2023-05-20T06:52:39.177Z,55.10
2023-05-20T06:54:42.024Z,54.90
2023-05-20T06:56:46.023Z,56.00
2023-05-20T06:58:49.378Z,55.30
2023-05-20T07:00:51.572Z,55.20
2023-05-20T07:02:54.113Z,55.20
2023-05-20T07:04:55.927Z,55.00
2023-05-20T07:06:58.378Z,55.00
2023-05-20T07:09:00.948Z,54.90
2023-05-20T07:11:02.792Z,55.10
2023-05-20T07:13:04.607Z,54.90
2023-05-20T07:15:06.853Z,54.80
2023-05-20T07:17:09.312Z,54.90
2023-05-20T07:19:12.856Z,55.00
2023-05-20T07:21:14.696Z,54.80
2023-05-20T07:23:33.094Z,54.70
2023-05-20T07:25:35.352Z,54.60
2023-05-20T07:27:37.374Z,54.70
2023-05-20T07:29:39.178Z,55.20
2023-05-20T07:31:41.154Z,55.10
2023-05-20T07:33:42.956Z,55.20
2023-05-20T07:35:45.589Z,54.60
2023-05-20T07:37:47.888Z,54.30
2023-05-20T07:39:49.791Z,54.40
2023-05-20T07:41:51.569Z,54.60
2023-05-20T07:43:53.429Z,54.90
2023-05-20T07:45:55.479Z,55.10
2023-05-20T07:47:57.630Z,54.50
2023-05-20T07:49:59.405Z,55.00
2023-05-20T07:52:03.129Z,54.70
2023-05-20T07:54:05.521Z,54.60
2023-05-20T07:56:07.538Z,54.40
2023-05-20T07:58:09.340Z,54.50
2023-05-20T08:00:12.062Z,54.30
2023-05-20T08:02:18.781Z,54.50
2023-05-20T08:04:21.359Z,54.40
2023-05-20T08:06:28.737Z,54.40
2023-05-20T08:08:31.764Z,54.40
2023-05-20T08:10:39.196Z,54.50
2023-05-20T08:12:41.270Z,54.50
2023-05-20T08:14:44.165Z,54.20
2023-05-20T08:16:46.813Z,54.20
2023-05-20T08:18:48.599Z,54.10
2023-05-20T08:20:50.926Z,54.20
2023-05-20T08:22:52.743Z,54.60
2023-05-20T08:24:54.549Z,54.20
2023-05-20T08:26:56.486Z,54.80
2023-05-20T08:29:01.323Z,54.20
2023-05-20T08:31:04.045Z,54.70
2023-05-20T08:33:07.204Z,54.10
2023-05-20T08:35:09.303Z,54.20
2023-05-20T08:37:11.168Z,54.30
2023-05-20T08:39:13.135Z,54.60
2023-05-20T08:41:15.533Z,54.40
2023-05-20T08:43:19.860Z,54.20
2023-05-20T08:45:27.777Z,54.60
2023-05-20T08:47:34.023Z,54.40
2023-05-20T08:49:35.782Z,54.30
2023-05-20T08:51:37.824Z,54.10
2023-05-20T08:53:39.929Z,54.20
2023-05-20T08:55:52.622Z,54.30
2023-05-20T08:57:54.653Z,54.00
2023-05-20T08:59:57.331Z,54.00
2023-05-20T09:01:59.135Z,54.00
2023-05-20T09:04:01.060Z,53.90
2023-05-20T09:06:09.298Z,54.10
2023-05-20T09:08:11.866Z,53.90
2023-05-20T09:10:13.742Z,54.10
2023-05-20T09:12:16.154Z,53.90
2023-05-20T09:14:17.937Z,53.90
2023-05-20T09:16:19.778Z,54.10
2023-05-20T09:18:21.597Z,53.90
2023-05-20T09:20:23.435Z,53.90
2023-05-20T09:22:25.992Z,53.90
2023-05-20T09:24:27.772Z,53.90
2023-05-20T09:26:32.983Z,54.00
2023-05-20T09:28:36.106Z,54.10
2023-05-20T09:30:37.842Z,54.40
2023-05-20T09:32:39.824Z,54.20
2023-05-20T09:34:45.525Z,54.30
2023-05-20T09:36:50.633Z,54.00
2023-05-20T09:38:55.671Z,53.70
2023-05-20T09:40:57.513Z,53.80
2023-05-20T09:43:08.725Z,53.70
2023-05-20T09:45:10.580Z,53.90
2023-05-20T09:47:12.926Z,53.70
2023-05-20T09:49:14.896Z,53.80
2023-05-20T09:51:17.631Z,53.60
2023-05-20T09:53:19.846Z,53.70
2023-05-20T09:55:22.788Z,53.60
2023-05-20T09:57:24.531Z,53.60
2023-05-20T09:59:27.146Z,53.60
2023-05-20T10:01:29.562Z,53.60
2023-05-20T10:03:32.067Z,53.60
2023-05-20T10:05:41.308Z,53.40
2023-05-20T10:07:52.227Z,53.40
2023-05-20T10:10:00.067Z,53.30
2023-05-20T10:12:14.478Z,53.40
2023-05-20T10:14:26.156Z,53.30
2023-05-20T10:16:37.430Z,54.10
2023-05-20T10:18:39.295Z,53.40
2023-05-20T10:20:47.950Z,53.40
2023-05-20T10:22:59.115Z,53.20
2023-05-20T10:25:06.698Z,53.10
2023-05-20T10:27:09.721Z,53.10
2023-05-20T10:29:15.685Z,53.10
2023-05-20T10:31:18.436Z,53.00
2023-05-20T10:33:20.293Z,53.00
2023-05-20T10:35:23.398Z,53.00
2023-05-20T10:37:26.893Z,52.90
2023-05-20T10:39:29.278Z,53.00
2023-05-20T10:41:31.241Z,52.80
2023-05-20T10:43:32.982Z,52.80
2023-05-20T10:45:37.374Z,52.70
2023-05-20T10:47:42.890Z,52.80
2023-05-20T10:49:46.422Z,52.80
2023-05-20T10:51:48.284Z,52.70
2023-05-20T10:53:52.583Z,52.70
2023-05-20T10:55:57.589Z,52.70
2023-05-20T10:57:59.570Z,52.60
2023-05-20T11:00:01.387Z,52.60
2023-05-20T11:02:03.996Z,52.40
2023-05-20T11:04:06.575Z,51.60
2023-05-20T11:06:16.849Z,51.60
2023-05-20T11:08:27.789Z,52.60
2023-05-20T11:10:31.937Z,51.80
2023-05-20T11:12:33.830Z,51.90
2023-05-20T11:14:35.723Z,51.80
2023-05-20T11:16:37.634Z,52.00
2023-05-20T11:18:39.528Z,52.00
2023-05-20T11:20:41.364Z,52.00
2023-05-20T11:22:44.773Z,52.60
2023-05-20T11:24:46.543Z,51.90
2023-05-20T11:26:48.293Z,51.80
2023-05-20T11:28:50.077Z,51.90
2023-05-20T11:30:52.528Z,51.90
2023-05-20T11:33:01.133Z,52.00
2023-05-20T11:35:04.893Z,51.90
2023-05-20T11:37:07.195Z,51.80
2023-05-20T11:39:10.146Z,51.90
2023-05-20T11:41:11.836Z,51.90
2023-05-20T11:43:14.496Z,51.90
2023-05-20T11:45:16.147Z,51.70
2023-05-20T11:47:24.424Z,51.60
2023-05-20T11:49:26.370Z,51.50
2023-05-20T11:51:28.762Z,50.90
2023-05-20T11:53:30.542Z,51.10
2023-05-20T11:55:33.516Z,51.10
2023-05-20T11:57:35.299Z,51.20
2023-05-20T11:59:37.012Z,51.20
2023-05-20T12:01:43.349Z,50.90
2023-05-20T12:03:45.178Z,51.00
2023-05-20T12:05:50.787Z,51.00
2023-05-20T12:07:52.630Z,50.80
2023-05-20T12:09:54.469Z,50.80
2023-05-20T12:11:56.824Z,50.80
2023-05-20T12:13:58.530Z,50.30
2023-05-20T12:16:00.456Z,50.00
2023-05-20T12:18:02.270Z,50.20
2023-05-20T12:20:06.876Z,50.30
2023-05-20T12:22:08.564Z,50.40
2023-05-20T12:24:11.069Z,50.40
2023-05-20T12:26:12.818Z,50.50
2023-05-20T12:28:14.605Z,50.60
2023-05-20T12:30:17.599Z,50.40
2023-05-20T12:32:21.009Z,50.50
2023-05-20T12:34:22.750Z,50.40
2023-05-20T12:36:24.473Z,50.40
2023-05-20T12:38:26.227Z,50.10
2023-05-20T12:40:27.972Z,50.40
2023-05-20T12:42:29.744Z,50.40
2023-05-20T12:44:31.609Z,50.70
2023-05-20T12:46:33.403Z,50.70
2023-05-20T12:48:35.201Z,50.60
2023-05-20T12:50:37.029Z,50.70
2023-05-20T12:52:39.052Z,50.50
2023-05-20T12:54:40.818Z,50.20
2023-05-20T12:56:42.642Z,50.00
2023-05-20T12:58:44.357Z,50.00
2023-05-20T13:00:46.063Z,49.50
2023-05-20T13:02:48.230Z,49.80
2023-05-20T13:04:50.202Z,49.50
2023-05-20T13:06:52.021Z,49.50
2023-05-20T13:08:53.714Z,49.40
2023-05-20T13:10:55.583Z,49.40
2023-05-20T13:12:57.877Z,49.10
2023-05-20T13:14:59.628Z,49.40
2023-05-20T13:17:01.833Z,49.40
2023-05-20T13:19:03.663Z,49.20
2023-05-20T13:21:05.422Z,49.40
2023-05-20T13:23:08.049Z,49.30
2023-05-20T13:25:09.783Z,49.40
2023-05-20T13:27:11.468Z,49.20
2023-05-20T13:29:13.535Z,49.30
2023-05-20T13:31:15.492Z,49.40
2023-05-20T13:33:17.244Z,49.40
2023-05-20T13:35:19.068Z,49.40
2023-05-20T13:37:20.994Z,49.60
2023-05-20T13:39:22.709Z,49.40
2023-05-20T13:41:25.438Z,48.70
2023-05-20T13:43:28.551Z,48.90
2023-05-20T13:45:30.314Z,49.10
2023-05-20T13:47:32.238Z,49.10
2023-05-20T13:49:34.043Z,49.30
2023-05-20T13:51:35.825Z,49.50
2023-05-20T13:53:37.560Z,49.00
2023-05-20T13:55:42.010Z,48.80
2023-05-20T13:57:43.745Z,49.20
2023-05-20T13:59:45.822Z,48.70
2023-05-20T14:01:47.634Z,48.90
2023-05-20T14:03:49.616Z,47.90
2023-05-20T14:05:51.612Z,48.80
2023-05-20T14:07:53.284Z,48.40
2023-05-20T14:09:54.985Z,48.40
2023-05-20T14:11:56.850Z,48.90
2023-05-20T14:13:58.691Z,48.60
2023-05-20T14:16:00.588Z,48.50
2023-05-20T14:18:02.409Z,48.30
2023-05-20T14:20:04.564Z,48.40
2023-05-20T14:22:06.308Z,48.30
2023-05-20T14:24:08.103Z,48.20
2023-05-20T14:26:10.165Z,48.40
2023-05-20T14:28:12.149Z,48.20
2023-05-20T14:30:13.829Z,48.30
2023-05-20T14:32:15.617Z,48.20
2023-05-20T14:34:17.439Z,47.90
2023-05-20T14:36:19.176Z,47.90
2023-05-20T14:38:21.721Z,47.70
2023-05-20T14:40:23.551Z,48.10
2023-05-20T14:42:25.554Z,48.10
2023-05-20T14:44:27.260Z,47.90
2023-05-20T14:46:29.131Z,47.70
2023-05-20T14:48:30.917Z,47.40
2023-05-20T14:50:32.782Z,47.80
2023-05-20T14:52:34.641Z,47.90
2023-05-20T14:54:36.360Z,47.60
2023-05-20T14:56:38.162Z,47.00
2023-05-20T14:58:39.973Z,47.30
2023-05-20T15:00:41.790Z,47.50
2023-05-20T15:02:43.696Z,47.50
2023-05-20T15:04:47.780Z,47.50
2023-05-20T15:06:49.564Z,47.40
2023-05-20T15:08:51.749Z,47.60
2023-05-20T15:10:53.500Z,47.80
2023-05-20T15:12:55.304Z,47.70
2023-05-20T15:14:57.189Z,47.90
2023-05-20T15:16:59.099Z,47.80
2023-05-20T15:19:01.062Z,47.70
2023-05-20T15:21:02.922Z,47.60
2023-05-20T15:23:04.754Z,47.50
2023-05-20T15:25:06.663Z,47.30
2023-05-20T15:27:08.429Z,47.40
2023-05-20T15:29:10.148Z,47.60
2023-05-20T15:31:11.955Z,46.60
2023-05-20T15:33:13.808Z,47.00
2023-05-20T15:35:15.657Z,47.30
2023-05-20T15:37:17.490Z,47.50
2023-05-20T15:39:19.286Z,47.50
2023-05-20T15:41:21.726Z,47.50
2023-05-20T15:43:23.534Z,47.60
2023-05-20T15:45:25.275Z,47.50
2023-05-20T15:47:27.004Z,47.50
2023-05-20T15:49:28.799Z,47.70
2023-05-20T15:51:30.887Z,47.70
2023-05-20T15:53:32.813Z,47.80
2023-05-20T15:55:34.977Z,47.80
2023-05-20T15:57:36.792Z,47.90
2023-05-20T15:59:38.667Z,47.90
2023-05-20T16:01:40.554Z,47.80
2023-05-20T16:03:42.952Z,47.90
2023-05-20T16:05:44.806Z,48.00
2023-05-20T16:07:46.814Z,48.10
2023-05-20T16:09:48.572Z,48.20
2023-05-20T16:11:50.387Z,48.30
2023-05-20T16:13:52.272Z,48.20
2023-05-20T16:15:57.510Z,48.20
2023-05-20T16:17:59.356Z,48.10
2023-05-20T16:20:01.258Z,48.20
2023-05-20T16:22:03.137Z,48.20
2023-05-20T16:24:05.523Z,48.10
2023-05-20T16:26:07.197Z,48.20
2023-05-20T16:28:08.935Z,48.80
2023-05-20T16:30:12.117Z,48.20
2023-05-20T16:32:13.914Z,48.20
2023-05-20T16:34:16.743Z,48.10
2023-05-20T16:36:18.589Z,48.10
2023-05-20T16:38:20.382Z,47.60
2023-05-20T16:40:22.268Z,47.70
2023-05-20T16:42:23.955Z,47.70
2023-05-20T16:44:26.055Z,47.80
2023-05-20T16:46:27.849Z,47.80
2023-05-20T16:48:29.657Z,47.80
2023-05-20T16:50:31.623Z,47.90
2023-05-20T16:52:34.439Z,47.90
2023-05-20T16:54:36.330Z,47.90
2023-05-20T16:56:38.159Z,48.00
2023-05-20T16:58:40.141Z,48.00
2023-05-20T17:00:42.505Z,48.00
2023-05-20T17:02:46.350Z,48.00
2023-05-20T17:04:48.446Z,47.90
2023-05-20T17:06:50.366Z,48.00
2023-05-20T17:08:52.275Z,48.00
2023-05-20T17:10:54.402Z,48.00
2023-05-20T17:12:56.490Z,48.00
2023-05-20T17:14:58.264Z,47.90
2023-05-20T17:17:00.521Z,48.00
2023-05-20T17:19:02.540Z,48.00
2023-05-20T17:21:04.404Z,48.00
2023-05-20T17:23:08.816Z,47.90
2023-05-20T17:25:16.948Z,48.00
2023-05-20T17:27:18.795Z,48.70
2023-05-20T17:29:20.555Z,48.00
2023-05-20T17:31:22.327Z,48.00
2023-05-20T17:33:25.021Z,48.00
2023-05-20T17:35:27.831Z,48.10
2023-05-20T17:37:29.529Z,48.10
2023-05-20T17:39:31.285Z,48.10
2023-05-20T17:41:33.000Z,48.20
2023-05-20T17:43:34.762Z,48.20
2023-05-20T17:45:36.552Z,48.20
2023-05-20T17:47:38.390Z,48.20
2023-05-20T17:49:40.536Z,48.20
2023-05-20T17:51:42.516Z,48.20
2023-05-20T17:53:44.261Z,48.20
2023-05-20T17:55:47.068Z,48.20
2023-05-20T17:57:48.863Z,48.40
2023-05-20T17:59:50.878Z,48.30
2023-05-20T18:01:52.940Z,48.30
2023-05-20T18:03:55.008Z,48.40
2023-05-20T18:05:57.173Z,48.40
2023-05-20T18:07:59.001Z,48.40
2023-05-20T18:10:00.950Z,48.50
2023-05-20T18:12:02.788Z,48.50
2023-05-20T18:14:04.757Z,48.50
2023-05-20T18:16:06.680Z,48.60
2023-05-20T18:18:08.573Z,48.60
2023-05-20T18:20:11.226Z,48.60
2023-05-20T18:22:13.072Z,48.70
2023-05-20T18:24:16.542Z,48.70
2023-05-20T18:26:18.345Z,48.70
2023-05-20T18:28:20.185Z,48.80
2023-05-20T18:30:23.189Z,49.00
2023-05-20T18:32:28.421Z,48.90
2023-05-20T18:34:30.327Z,49.00
2023-05-20T18:36:32.295Z,49.00
2023-05-20T18:38:34.086Z,49.10
2023-05-20T18:40:36.141Z,49.00
2023-05-20T18:42:38.087Z,49.10
2023-05-20T18:44:39.790Z,49.20
2023-05-20T18:46:41.906Z,49.30
2023-05-20T18:48:43.605Z,49.20
2023-05-20T18:50:45.356Z,49.40
2023-05-20T18:52:47.102Z,49.40
2023-05-20T18:54:48.917Z,49.40
2023-05-20T18:56:50.778Z,49.50
2023-05-20T18:58:52.513Z,49.40
2023-05-20T19:00:54.371Z,49.60
2023-05-20T19:02:58.130Z,49.60
2023-05-20T19:04:59.993Z,49.70
2023-05-20T19:07:01.955Z,49.70
2023-05-20T19:09:04.163Z,49.80
2023-05-20T19:11:05.994Z,49.80
2023-05-20T19:13:07.912Z,49.90
2023-05-20T19:15:09.975Z,49.90
2023-05-20T19:17:11.896Z,50.00
2023-05-20T19:19:14.623Z,50.00
2023-05-20T19:21:16.644Z,50.10
2023-05-20T19:23:18.510Z,50.10
2023-05-20T19:25:21.138Z,50.20
2023-05-20T19:27:25.610Z,50.20
2023-05-20T19:29:40.602Z,50.30
2023-05-20T19:31:45.890Z,50.10
2023-05-20T19:33:59.008Z,50.60
2023-05-20T19:36:15.641Z,50.40
2023-05-20T19:41:08.160Z,50.50
2023-05-20T19:43:10.084Z,50.60
2023-05-20T19:45:11.977Z,50.40
2023-05-20T19:47:13.803Z,50.50
2023-05-20T19:49:15.786Z,50.50
2023-05-20T19:51:17.572Z,50.60
2023-05-20T19:53:21.709Z,50.70
2023-05-20T19:55:23.458Z,50.80
2023-05-20T19:57:25.844Z,50.80
2023-05-20T19:59:27.680Z,50.80
2023-05-20T20:01:29.669Z,50.80
2023-05-20T20:03:31.407Z,50.90
2023-05-20T20:05:33.664Z,51.00
2023-05-20T20:07:35.579Z,51.10
2023-05-20T20:09:37.390Z,51.10
2023-05-20T20:11:43.414Z,51.20
2023-05-20T20:13:45.853Z,51.20
2023-05-20T20:15:47.601Z,51.20
2023-05-20T20:17:52.149Z,51.40
2023-05-20T20:19:55.227Z,51.30
2023-05-20T20:21:58.153Z,51.30
2023-05-20T20:24:00.146Z,51.40
2023-05-20T20:26:01.900Z,51.40
2023-05-20T20:28:03.655Z,51.30
2023-05-20T20:30:06.115Z,51.50
2023-05-20T20:32:08.468Z,51.50
2023-05-20T20:34:10.261Z,51.40
2023-05-20T20:36:12.029Z,51.60
2023-05-20T20:38:14.828Z,51.70
2023-05-20T20:40:16.879Z,52.10
2023-05-20T20:42:18.716Z,52.00
2023-05-20T20:44:23.481Z,51.90
2023-05-20T20:46:27.484Z,51.90
2023-05-20T20:48:29.364Z,51.90
2023-05-20T20:50:31.707Z,52.10
2023-05-20T20:52:33.768Z,51.90
2023-05-20T20:54:36.495Z,51.80
2023-05-20T20:56:39.503Z,51.80
2023-05-20T20:58:41.299Z,52.00
2023-05-20T21:00:44.950Z,52.10
2023-05-20T21:02:47.503Z,52.30
2023-05-20T21:04:49.284Z,52.40
2023-05-20T21:06:51.240Z,52.30
2023-05-20T21:08:53.160Z,52.10
2023-05-20T21:10:59.101Z,52.20
2023-05-20T21:13:00.844Z,52.30
2023-05-20T21:15:02.604Z,52.50
2023-05-20T21:17:04.489Z,52.70
2023-05-20T21:19:06.376Z,52.60
2023-05-20T21:21:12.098Z,52.70
2023-05-20T21:23:13.862Z,52.80
2023-05-20T21:25:15.651Z,52.80
2023-05-20T21:27:17.398Z,52.70
2023-05-20T21:29:19.196Z,52.60
2023-05-20T21:31:21.046Z,52.40
2023-05-20T21:33:22.862Z,52.60
2023-05-20T21:35:24.593Z,52.80
2023-05-20T21:37:26.394Z,53.20
2023-05-20T21:39:28.117Z,52.90
2023-05-20T21:41:29.869Z,53.00
2023-05-20T21:43:34.714Z,53.00
2023-05-20T21:45:36.766Z,52.80
2023-05-20T21:47:38.793Z,53.00
2023-05-20T21:49:40.580Z,53.00
2023-05-20T21:51:42.412Z,53.20
2023-05-20T21:53:44.158Z,53.30
2023-05-20T21:55:45.896Z,53.10
2023-05-20T21:57:47.653Z,53.20
2023-05-20T21:59:49.382Z,53.10
2023-05-20T22:01:51.231Z,53.50
2023-05-20T22:03:53.285Z,53.30
2023-05-20T22:05:55.341Z,53.80
2023-05-20T22:07:57.156Z,53.70
2023-05-20T22:09:59.813Z,53.40
2023-05-20T22:12:02.144Z,53.50
2023-05-20T22:14:04.870Z,53.50
2023-05-20T22:16:07.072Z,53.60
2023-05-20T22:18:09.487Z,53.60
2023-05-20T22:20:11.662Z,53.50
2023-05-20T22:22:13.355Z,53.40
2023-05-20T22:24:15.079Z,53.60
2023-05-20T22:26:19.618Z,55.50
2023-05-20T22:28:21.385Z,54.20
2023-05-20T22:30:23.085Z,54.50
2023-05-20T22:32:24.796Z,54.40
2023-05-20T22:34:26.618Z,54.20
2023-05-20T22:36:28.393Z,53.90
2023-05-20T22:38:30.741Z,54.30
2023-05-20T22:40:33.434Z,54.50
2023-05-20T22:42:35.169Z,54.50
2023-05-20T22:44:36.842Z,54.70
2023-05-20T22:46:38.553Z,54.60
2023-05-20T22:48:41.163Z,54.60
2023-05-20T22:50:42.860Z,54.70
2023-05-20T22:52:44.717Z,54.30
2023-05-20T22:54:46.522Z,54.90
2023-05-20T22:56:48.364Z,54.70
2023-05-20T22:58:50.051Z,54.60
2023-05-20T23:00:52.602Z,54.60
2023-05-20T23:02:56.477Z,54.50
2023-05-20T23:04:58.271Z,54.80
2023-05-20T23:07:00.132Z,54.80
2023-05-20T23:09:04.196Z,54.60
2023-05-20T23:11:05.956Z,54.60
2023-05-20T23:13:07.653Z,55.60
2023-05-20T23:15:09.683Z,55.30
2023-05-20T23:17:11.468Z,54.80
2023-05-20T23:19:13.401Z,55.00
2023-05-20T23:21:15.102Z,54.90
2023-05-20T23:23:19.199Z,54.70
2023-05-20T23:25:24.441Z,55.70
2023-05-20T23:27:26.243Z,55.40
2023-05-20T23:29:28.612Z,55.40
2023-05-20T23:31:30.317Z,55.30
2023-05-20T23:33:32.646Z,54.90
2023-05-20T23:35:34.618Z,55.40
2023-05-20T23:37:36.521Z,55.20
2023-05-20T23:39:38.381Z,55.20
2023-05-20T23:41:40.078Z,55.30
2023-05-20T23:43:42.812Z,55.30
2023-05-20T23:45:44.553Z,55.10
2023-05-20T23:47:46.286Z,55.40
2023-05-20T23:49:49.382Z,55.40
2023-05-20T23:51:51.673Z,55.30
2023-05-20T23:53:53.616Z,55.20
2023-05-20T23:55:55.319Z,55.40
2023-05-20T23:57:57.229Z,55.20
2023-05-20T23:59:58.957Z,55.40
